Time;durP1;ratioP1;P1;durP2;ratioP2;P2;SDS_P1;SDS_P2;PMS_P1;PMS_P2;Temp;Humidity;BMP_temperature;BMP_pressure;BME280_temperature;BME280_humidity;BME280_pressure;Samples;Min_cycle;Max_cycle;Signal;HPM_P1;HPM_P2
2024/02/01 00:03:25;;;;;;;46.80;34.90;;;;;;;1.65;100.00;100990.98;181407;1257;43830;-79
2024/02/01 00:07:28;;;;;;;55.60;31.00;;;;;;;1.62;100.00;100987.41;181209;1256;44081;-80
2024/02/01 00:11:31;;;;;;;52.40;31.60;;;;;;;1.54;100.00;100977.52;181383;1256;43732;-80
2024/02/01 00:15:35;;;;;;;62.80;35.00;;;;;;;1.60;100.00;100970.89;181371;1256;58473;-79
2024/02/01 00:19:38;;;;;;;65.10;40.40;;;;;;;1.66;100.00;100964.54;181249;1258;44050;-80
2024/02/01 00:23:41;;;;;;;53.10;36.10;;;;;;;1.76;100.00;100958.98;181355;1258;44011;-80
2024/02/01 00:27:44;;;;;;;53.60;30.40;;;;;;;1.81;100.00;100957.21;181325;1259;44041;-79
2024/02/01 00:31:47;;;;;;;53.50;36.40;;;;;;;1.82;100.00;100960.51;181471;1256;43947;-79
2024/02/01 00:35:50;;;;;;;44.70;31.90;;;;;;;1.82;100.00;100968.72;181438;1257;57340;-79
2024/02/01 00:39:53;;;;;;;117.20;58.20;;;;;;;1.66;100.00;100972.45;181442;1256;43834;-79
2024/02/01 00:43:57;;;;;;;108.40;60.10;;;;;;;1.57;100.00;100970.61;181384;1256;43716;-79
2024/02/01 00:48:00;;;;;;;108.40;57.20;;;;;;;1.51;100.00;100965.59;181225;1256;44305;-79
2024/02/01 00:52:03;;;;;;;103.50;57.40;;;;;;;1.35;100.00;100957.69;181437;1257;43933;-80
2024/02/01 00:56:06;;;;;;;120.00;62.00;;;;;;;1.12;100.00;100951.11;181334;1257;58154;-79
2024/02/01 01:00:10;;;;;;;116.80;69.30;;;;;;;1.08;100.00;100941.27;181176;1258;44210;-80
2024/02/01 01:04:16;;;;;;;101.50;60.70;;;;;;;1.11;100.00;100929.98;181493;1256;44032;-79
2024/02/01 01:08:19;;;;;;;101.80;57.00;;;;;;;1.11;100.00;100945.69;181517;1257;44160;-79
2024/02/01 01:12:23;;;;;;;110.10;58.40;;;;;;;1.10;100.00;100942.77;181422;1259;43706;-79
2024/02/01 01:16:27;;;;;;;72.30;45.70;;;;;;;1.13;100.00;100934.80;181476;1257;58262;-79
2024/02/01 01:20:30;;;;;;;75.70;42.90;;;;;;;1.14;100.00;100924.44;181393;1256;44183;-79
2024/02/01 01:24:33;;;;;;;58.00;33.40;;;;;;;1.13;100.00;100916.29;181468;1255;43860;-79
2024/02/01 01:28:36;;;;;;;50.90;34.00;;;;;;;1.13;100.00;100907.73;181467;1258;44202;-79
2024/02/01 01:32:40;;;;;;;52.60;34.50;;;;;;;1.18;100.00;100903.39;181186;1256;44034;-79
2024/02/01 01:36:43;;;;;;;60.30;37.70;;;;;;;1.26;100.00;100894.55;181375;1257;59564;-79
2024/02/01 01:40:46;;;;;;;63.90;39.20;;;;;;;1.33;100.00;100884.54;181454;1256;44023;-79
2024/02/01 01:44:49;;;;;;;51.30;31.00;;;;;;;1.34;100.00;100874.73;181445;1257;44150;-79
2024/02/01 01:48:52;;;;;;;54.00;32.80;;;;;;;1.27;100.00;100877.20;181331;1256;43759;-79
2024/02/01 01:52:57;;;;;;;81.70;49.00;;;;;;;1.18;100.00;100867.92;181287;1257;44180;-79
2024/02/01 01:57:01;;;;;;;118.40;68.90;;;;;;;1.11;100.00;100860.11;181405;1256;59438;-80
2024/02/01 02:01:06;;;;;;;82.90;49.80;;;;;;;1.11;100.00;100859.76;181243;1257;44067;-79
2024/02/01 02:05:10;;;;;;;73.50;39.90;;;;;;;1.14;100.00;100856.33;181265;1257;43993;-79
2024/02/01 02:09:14;;;;;;;60.50;37.80;;;;;;;1.16;100.00;100853.80;181433;1257;43869;-79
2024/02/01 02:13:17;;;;;;;53.00;31.90;;;;;;;1.19;100.00;100843.60;181244;1257;44032;-79
2024/02/01 02:17:21;;;;;;;48.70;29.10;;;;;;;1.23;100.00;100840.48;181202;1257;59531;-79
2024/02/01 02:21:24;;;;;;;40.50;24.60;;;;;;;1.33;100.00;100834.40;181297;1255;44153;-79
2024/02/01 02:25:27;;;;;;;33.80;23.00;;;;;;;1.44;100.00;100835.43;181268;1257;44038;-79
2024/02/01 02:29:30;;;;;;;32.00;21.50;;;;;;;1.57;100.00;100836.19;181284;1256;44006;-79
2024/02/01 02:33:34;;;;;;;32.50;21.70;;;;;;;1.67;100.00;100833.03;181350;1257;43710;-79
2024/02/01 02:37:46;;;;;;;30.70;20.50;;;;;;;1.78;100.00;100824.27;181416;1256;58703;-80
2024/02/01 02:41:49;;;;;;;29.20;17.30;;;;;;;1.86;100.00;100819.73;181401;1257;44216;-79
2024/02/01 02:45:52;;;;;;;26.50;18.60;;;;;;;1.93;100.00;100820.03;181271;1257;44231;-80
2024/02/01 02:49:55;;;;;;;22.40;15.90;;;;;;;2.09;100.00;100815.59;181213;1257;44289;-79
2024/02/01 02:53:58;;;;;;;27.00;17.10;;;;;;;2.25;100.00;100814.45;181308;1257;43758;-79
2024/02/01 02:58:01;;;;;;;23.60;14.80;;;;;;;2.37;100.00;100804.00;181211;1256;59535;-79
2024/02/01 03:02:07;;;;;;;21.50;15.20;;;;;;;2.57;100.00;100798.33;181320;1256;44272;-79
2024/02/01 03:06:10;;;;;;;21.90;14.70;;;;;;;2.87;100.00;100796.23;181482;1256;44258;-79
2024/02/01 03:10:15;;;;;;;22.60;12.10;;;;;;;3.10;100.00;100793.89;181266;1257;43792;-79
2024/02/01 03:14:19;;;;;;;20.50;12.60;;;;;;;3.33;100.00;100791.48;181430;1256;43974;-79
2024/02/01 03:18:22;;;;;;;18.60;12.80;;;;;;;3.53;100.00;100785.38;181380;1256;58528;-79
2024/02/01 03:22:27;;;;;;;17.30;10.80;;;;;;;3.73;100.00;100774.84;181378;1256;43872;-79
2024/02/01 03:26:34;;;;;;;20.50;12.20;;;;;;;4.00;100.00;100765.21;181150;1256;206623;-79
2024/02/01 03:30:46;;;;;;;12.80;8.70;;;;;;;4.30;100.00;100759.93;181396;1256;43961;-79
2024/02/01 03:34:49;;;;;;;14.50;8.50;;;;;;;4.54;100.00;100749.67;181364;1256;44198;-79
2024/02/01 03:38:52;;;;;;;14.80;10.20;;;;;;;4.70;100.00;100739.05;181440;1255;58519;-79
2024/02/01 03:42:56;;;;;;;8.20;7.40;;;;;;;4.83;100.00;100736.27;181332;1256;43960;-79
2024/02/01 03:46:59;;;;;;;12.20;8.20;;;;;;;4.92;100.00;100735.64;181448;1256;44216;-79
2024/02/01 03:51:03;;;;;;;11.60;9.20;;;;;;;5.00;100.00;100735.42;181292;1257;44015;-79
2024/02/01 03:55:16;;;;;;;15.50;9.90;;;;;;;5.08;100.00;100730.79;181421;1255;44015;-79
2024/02/01 03:59:19;;;;;;;19.40;10.10;;;;;;;5.16;100.00;100736.00;181360;1256;57052;-79
2024/02/01 04:03:22;;;;;;;12.60;8.70;;;;;;;5.24;100.00;100739.45;181292;1256;43991;-79
2024/02/01 04:07:25;;;;;;;14.10;9.30;;;;;;;5.28;100.00;100743.15;181330;1256;43778;-79
2024/02/01 04:11:31;;;;;;;23.60;10.80;;;;;;;5.34;100.00;100741.60;181408;1256;44215;-80
2024/02/01 04:15:35;;;;;;;11.70;9.50;;;;;;;5.41;100.00;100737.86;181456;1256;44013;-79
2024/02/01 04:19:39;;;;;;;13.30;10.90;;;;;;;5.46;100.00;100735.48;181323;1256;57933;-86
2024/02/01 04:23:43;;;;;;;10.50;8.60;;;;;;;5.50;100.00;100732.86;181284;1256;44009;-86
2024/02/01 04:27:49;;;;;;;9.80;8.30;;;;;;;5.47;100.00;100729.98;181335;1256;44275;-86
2024/02/01 04:31:53;;;;;;;24.60;10.90;;;;;;;5.50;100.00;100726.52;181311;1256;43989;-86
2024/02/01 04:35:57;;;;;;;16.00;8.40;;;;;;;5.55;100.00;100723.93;181420;1256;43822;-86
2024/02/01 04:40:03;;;;;;;11.10;8.50;;;;;;;5.67;100.00;100718.54;181375;1255;58669;-86
2024/02/01 04:44:07;;;;;;;13.00;8.00;;;;;;;5.75;100.00;100717.58;181415;1256;44285;-85
2024/02/01 04:48:10;;;;;;;18.30;9.80;;;;;;;5.85;100.00;100713.68;181598;1256;44053;-85
2024/02/01 04:52:14;;;;;;;12.20;8.60;;;;;;;5.86;100.00;100708.70;181596;1256;44087;-86
2024/02/01 04:56:17;;;;;;;13.00;10.40;;;;;;;5.95;100.00;100700.70;181598;1255;44219;-86
2024/02/01 05:00:21;;;;;;;13.50;8.80;;;;;;;5.99;99.95;100698.50;181448;1256;57865;-86
2024/02/01 05:04:25;;;;;;;12.50;7.70;;;;;;;6.06;99.85;100697.83;181393;1256;44299;-86
2024/02/01 05:08:30;;;;;;;8.90;6.90;;;;;;;6.09;99.41;100694.30;181326;1255;43861;-85
2024/02/01 05:12:35;;;;;;;8.70;7.90;;;;;;;6.12;99.23;100691.48;181469;1256;44268;-86
2024/02/01 05:16:39;;;;;;;16.40;10.10;;;;;;;6.18;98.96;100687.78;181435;1256;44394;-85
2024/02/01 05:20:42;;;;;;;12.30;9.00;;;;;;;6.23;98.77;100692.47;181372;1255;59501;-84
2024/02/01 05:24:46;;;;;;;14.60;9.00;;;;;;;6.25;98.57;100691.43;181588;1256;44032;-84
2024/02/01 05:28:51;;;;;;;7.20;6.00;;;;;;;6.28;98.24;100692.87;181587;1255;43819;-84
2024/02/01 05:32:55;;;;;;;9.80;6.40;;;;;;;6.32;98.15;100694.23;181342;1255;44312;-85
2024/02/01 05:36:59;;;;;;;12.90;9.80;;;;;;;6.34;97.67;100697.45;181577;1255;43867;-84
2024/02/01 05:41:04;;;;;;;13.10;8.20;;;;;;;6.39;96.76;100695.59;181390;1256;58124;-84
2024/02/01 05:45:08;;;;;;;12.40;8.40;;;;;;;6.49;96.41;100695.91;181320;1255;44623;-84
2024/02/01 05:49:12;;;;;;;8.60;7.30;;;;;;;6.55;96.91;100690.60;181537;1256;44224;-85
2024/02/01 05:53:15;;;;;;;9.30;6.90;;;;;;;6.57;98.52;100690.50;181576;1255;44012;-84
2024/02/01 05:57:18;;;;;;;11.20;8.00;;;;;;;6.57;99.24;100689.46;181508;1256;43762;-85
2024/02/01 06:01:22;;;;;;;10.70;7.80;;;;;;;6.54;99.93;100693.84;181383;1256;57071;-84
2024/02/01 06:05:26;;;;;;;7.70;6.70;;;;;;;6.50;100.00;100695.17;181330;1255;44230;-84
2024/02/01 06:09:29;;;;;;;19.40;9.40;;;;;;;6.48;100.00;100697.05;181296;1256;44125;-84
2024/02/01 06:13:35;;;;;;;16.20;9.90;;;;;;;6.46;100.00;100706.13;181342;1255;44236;-84
2024/02/01 06:17:38;;;;;;;11.80;8.50;;;;;;;6.41;100.00;100706.77;181432;1256;43922;-84
2024/02/01 06:21:42;;;;;;;18.30;8.80;;;;;;;6.36;100.00;100707.90;181295;1256;58332;-84
2024/02/01 06:25:45;;;;;;;9.20;8.20;;;;;;;6.32;100.00;100707.46;181359;1255;43844;-84
2024/02/01 06:29:48;;;;;;;10.70;7.70;;;;;;;6.26;100.00;100713.07;181561;1256;44079;-84
2024/02/01 06:33:52;;;;;;;12.50;9.40;;;;;;;6.18;100.00;100708.20;181385;1256;44187;-84
2024/02/01 06:38:04;;;;;;;12.20;8.60;;;;;;;6.18;100.00;100713.35;181411;1256;44030;-84
2024/02/01 06:42:17;;;;;;;15.00;9.20;;;;;;;6.12;100.00;100710.67;181336;1256;59646;-84
2024/02/01 06:46:38;;;;;;;9.80;8.60;;;;;;;6.09;100.00;100707.67;181332;1256;44009;-83
2024/02/01 06:51:10;;;;;;;11.40;7.20;;;;;;;6.10;100.00;100706.58;181411;1256;44111;-84
2024/02/01 06:59:54;;;;;;;14.30;9.20;;;;;;;5.99;100.00;100714.91;181297;1255;44010;-84
2024/02/01 07:04:07;;;;;;;11.80;8.60;;;;;;;5.95;100.00;100716.84;181408;1256;58177;-84
2024/02/01 07:08:13;;;;;;;12.00;8.90;;;;;;;5.97;100.00;100716.41;181347;1255;43851;-84
2024/02/01 07:12:29;;;;;;;12.40;8.60;;;;;;;5.95;100.00;100715.45;181404;1255;44164;-83
2024/02/01 07:16:54;;;;;;;14.50;8.90;;;;;;;5.96;100.00;100730.58;181517;1256;44024;-84
2024/02/01 07:21:08;;;;;;;16.90;9.80;;;;;;;5.99;100.00;100740.27;181326;1256;44017;-83
2024/02/01 07:25:33;;;;;;;11.60;8.30;;;;;;;5.98;100.00;100741.34;181333;1256;58895;-84
2024/02/01 08:00:08;;;;;;;7.50;5.70;;;;;;;6.09;100.00;100736.90;181796;1253;44200;-83
2024/02/01 08:04:13;;;;;;;11.80;6.90;;;;;;;6.08;100.00;100750.02;181824;1253;44018;-84
2024/02/01 08:08:17;;;;;;;8.70;6.40;;;;;;;6.09;100.00;100746.79;181716;1253;59410;-84
2024/02/01 08:12:20;;;;;;;10.30;7.20;;;;;;;6.14;100.00;100739.64;181603;1253;44277;-84
2024/02/01 08:16:23;;;;;;;8.60;6.50;;;;;;;6.12;100.00;100748.52;181548;1253;44380;-84
2024/02/01 08:20:27;;;;;;;7.50;4.90;;;;;;;6.16;100.00;100750.79;181694;1253;44275;-84
2024/02/01 08:24:32;;;;;;;7.20;5.30;;;;;;;6.17;100.00;100748.79;181592;1254;44205;-84
2024/02/01 08:28:35;;;;;;;7.80;6.50;;;;;;;6.28;100.00;100753.48;181731;1253;58199;-84
2024/02/01 08:32:42;;;;;;;9.30;7.10;;;;;;;6.35;100.00;100754.14;181764;1253;43916;-84
2024/02/01 08:36:45;;;;;;;7.00;5.50;;;;;;;6.42;100.00;100755.13;181609;1253;44961;-84
2024/02/01 08:40:48;;;;;;;7.60;5.50;;;;;;;6.35;100.00;100757.08;181866;1253;43896;-84
2024/02/01 08:44:51;;;;;;;9.70;5.70;;;;;;;6.41;100.00;100761.39;181605;1253;44216;-84
2024/02/01 08:48:55;;;;;;;5.40;4.50;;;;;;;6.38;100.00;100774.39;181463;1254;58364;-85
2024/02/01 08:53:00;;;;;;;7.20;5.10;;;;;;;6.40;100.00;100778.16;181862;1253;44111;-84
2024/02/01 08:57:04;;;;;;;6.30;5.30;;;;;;;6.55;100.00;100779.98;181835;1254;43994;-84
2024/02/01 09:01:22;;;;;;;4.00;3.70;;;;;;;6.61;100.00;100775.76;181728;1253;43941;-84
2024/02/01 09:05:27;;;;;;;8.80;5.70;;;;;;;6.65;100.00;100777.61;181740;1253;44136;-84
2024/02/01 09:09:31;;;;;;;5.40;4.20;;;;;;;6.70;100.00;100787.39;181661;1253;59593;-85
2024/02/01 09:13:35;;;;;;;4.20;3.80;;;;;;;6.71;100.00;100787.52;181528;1253;44326;-84
2024/02/01 09:17:40;;;;;;;6.20;4.40;;;;;;;6.73;100.00;100790.02;181567;1254;44153;-83
2024/02/01 09:21:43;;;;;;;5.20;3.40;;;;;;;6.82;100.00;100797.29;181752;1253;44192;-84
2024/02/01 09:25:46;;;;;;;6.10;5.30;;;;;;;6.92;100.00;100803.23;181514;1253;44055;-83
2024/02/01 09:29:49;;;;;;;8.00;5.40;;;;;;;7.04;100.00;100811.56;181446;1255;59347;-84
2024/02/01 09:33:53;;;;;;;8.00;4.90;;;;;;;7.09;100.00;100817.27;181742;1252;44062;-83
2024/02/01 09:37:56;;;;;;;7.60;5.00;;;;;;;7.10;100.00;100823.02;181684;1253;44161;-83
2024/02/01 09:42:11;;;;;;;4.90;4.40;;;;;;;7.09;100.00;100818.64;181749;1253;44329;-84
2024/02/01 09:46:19;;;;;;;6.60;4.70;;;;;;;7.12;100.00;100817.77;181545;1253;44076;-84
2024/02/01 09:50:23;;;;;;;6.00;4.50;;;;;;;7.20;100.00;100819.09;181579;1252;58280;-83
2024/02/01 09:54:27;;;;;;;4.40;3.90;;;;;;;7.28;100.00;100818.60;181576;1253;44010;-83
2024/02/01 09:58:32;;;;;;;4.00;3.50;;;;;;;7.38;100.00;100816.94;181571;1253;43853;-83
2024/02/01 10:02:36;;;;;;;3.50;2.70;;;;;;;7.46;100.00;100819.46;181491;1253;43987;-84
2024/02/01 10:06:39;;;;;;;3.10;2.80;;;;;;;7.56;100.00;100817.98;181813;1253;44052;-84
2024/02/01 10:10:45;;;;;;;5.80;4.50;;;;;;;7.65;100.00;100813.57;181690;1253;59524;-84
2024/02/01 10:14:50;;;;;;;3.00;2.30;;;;;;;7.70;100.00;100814.20;181442;1253;45518;-84
2024/02/01 10:19:09;;;;;;;4.10;3.20;;;;;;;7.65;100.00;100811.13;181686;1253;44057;-82
2024/02/01 10:23:15;;;;;;;6.80;2.70;;;;;;;7.51;100.00;100809.45;181557;1253;44052;-84
2024/02/01 10:27:19;;;;;;;4.10;2.70;;;;;;;7.43;100.00;100801.34;181564;1253;44258;-83
2024/02/01 10:31:24;;;;;;;4.00;2.70;;;;;;;7.31;100.00;100802.75;181673;1253;59369;-84
2024/02/01 10:35:29;;;;;;;3.70;2.60;;;;;;;7.28;100.00;100801.67;181979;1253;44192;-84
2024/02/01 10:39:39;;;;;;;2.60;2.40;;;;;;;7.19;100.00;100797.09;181617;1253;43848;-83
2024/02/01 10:43:45;;;;;;;4.10;3.20;;;;;;;7.08;100.00;100786.42;181590;1253;44231;-83
2024/02/01 10:47:52;;;;;;;3.60;3.30;;;;;;;7.13;100.00;100782.59;181740;1253;43759;-83
2024/02/01 10:51:56;;;;;;;5.10;3.30;;;;;;;7.24;100.00;100788.66;181769;1253;59910;-83
2024/02/01 10:56:00;;;;;;;6.60;4.60;;;;;;;7.35;100.00;100785.39;181556;1252;44059;-83
2024/02/01 11:00:04;;;;;;;5.00;4.50;;;;;;;7.27;100.00;100788.64;181537;1253;44023;-84
2024/02/01 11:04:11;;;;;;;6.90;4.90;;;;;;;7.31;100.00;100781.90;181544;1253;43771;-84
2024/02/01 11:08:16;;;;;;;4.10;3.70;;;;;;;7.33;100.00;100777.71;181497;1253;44012;-83
2024/02/01 11:12:24;;;;;;;2.70;2.50;;;;;;;7.47;100.00;100769.30;181708;1253;58564;-84
2024/02/01 11:16:37;;;;;;;3.20;3.00;;;;;;;7.66;100.00;100758.98;181748;1254;44125;-84
2024/02/01 11:20:40;;;;;;;5.80;2.90;;;;;;;7.74;100.00;100766.47;181643;1253;44126;-84
2024/02/01 11:24:44;;;;;;;3.50;3.10;;;;;;;7.78;100.00;100776.23;181796;1253;44047;-84
2024/02/01 11:28:48;;;;;;;3.60;3.30;;;;;;;7.72;100.00;100782.11;181456;1253;44275;-84
2024/02/01 11:32:52;;;;;;;3.90;2.90;;;;;;;7.60;100.00;100785.77;181513;1253;59392;-84
2024/02/01 11:36:56;;;;;;;4.90;4.40;;;;;;;7.65;100.00;100780.94;181875;1253;43850;-83
2024/02/01 11:41:00;;;;;;;4.40;3.30;;;;;;;7.73;100.00;100782.92;181653;1253;44001;-84
2024/02/01 11:45:08;;;;;;;5.40;4.90;;;;;;;7.77;100.00;100781.93;181829;1253;44332;-83
2024/02/01 11:49:20;;;;;;;7.60;4.80;;;;;;;7.86;100.00;100783.18;181671;1253;43745;-84
2024/02/01 11:53:24;;;;;;;12.60;7.60;;;;;;;7.90;100.00;100786.45;181682;1253;59717;-84
2024/02/01 11:57:30;;;;;;;4.80;3.20;;;;;;;8.06;100.00;100775.39;181631;1253;44191;-83
2024/02/01 12:01:33;;;;;;;7.60;4.50;;;;;;;8.30;100.00;100780.09;181799;1253;44101;-84
2024/02/01 12:05:37;;;;;;;7.30;4.50;;;;;;;8.53;100.00;100777.20;181625;1253;43940;-83
2024/02/01 12:09:41;;;;;;;7.60;3.60;;;;;;;8.78;100.00;100772.56;181496;1253;44300;-84
2024/02/01 12:13:48;;;;;;;3.90;3.50;;;;;;;8.80;100.00;100780.38;181619;1253;57980;-84
2024/02/01 12:17:55;;;;;;;;;;;;;;;8.75;99.77;100767.30;181654;1253;44003;-84
2024/02/01 12:22:00;;;;;;;7.00;1.80;;;;;;;8.69;100.00;100772.27;181692;1253;43819;-84
2024/02/01 12:26:05;;;;;;;3.00;1.90;;;;;;;8.69;100.00;100777.91;181882;1255;44191;-84
2024/02/01 12:30:11;;;;;;;2.50;1.70;;;;;;;8.57;99.51;100775.67;181571;1253;43692;-84
2024/02/01 12:34:15;;;;;;;3.20;1.60;;;;;;;8.59;99.87;100777.02;182047;1254;59585;-84
2024/02/01 12:38:18;;;;;;;3.00;2.50;;;;;;;8.73;100.00;100776.23;181673;1253;43751;-84
2024/02/01 12:42:21;;;;;;;2.80;2.40;;;;;;;8.96;100.00;100759.70;181719;1256;44594;-84
2024/02/01 12:46:25;;;;;;;8.80;2.40;;;;;;;8.96;98.76;100766.09;181689;1253;44036;-84
2024/02/01 12:50:28;;;;;;;4.40;1.90;;;;;;;8.98;96.74;100765.77;181693;1253;44145;-83
2024/02/01 12:54:33;;;;;;;1.80;1.40;;;;;;;8.89;94.53;100765.64;181789;1253;57798;-84
2024/02/01 12:58:39;;;;;;;1.60;1.30;;;;;;;8.79;90.74;100781.34;181570;1253;43847;-84
2024/02/01 13:02:44;;;;;;;2.60;1.60;;;;;;;8.71;91.81;100780.78;181646;1253;44189;-84
2024/02/01 13:06:48;;;;;;;6.20;1.80;;;;;;;8.84;91.98;100790.39;181590;1254;44232;-84
2024/02/01 13:10:55;;;;;;;4.30;1.40;;;;;;;8.91;90.25;100780.23;181587;1253;44089;-84
2024/02/01 13:14:59;;;;;;;3.40;1.60;;;;;;;8.88;90.86;100774.76;181709;1253;60061;-84
2024/02/01 13:19:08;;;;;;;2.00;1.70;;;;;;;8.90;90.82;100786.08;181890;1253;44158;-84
2024/02/01 13:23:12;;;;;;;2.80;1.30;;;;;;;8.92;90.02;100781.74;181582;1253;44160;-84
2024/02/01 13:27:16;;;;;;;5.20;2.10;;;;;;;8.94;91.45;100792.90;181793;1253;44232;-85
2024/02/01 13:31:19;;;;;;;10.90;2.60;;;;;;;9.10;94.06;100796.27;181771;1256;44066;-84
2024/02/01 13:35:22;;;;;;;2.60;1.60;;;;;;;9.17;91.27;100800.05;181657;1253;58222;-84
2024/02/01 13:39:32;;;;;;;5.70;1.90;;;;;;;9.21;89.14;100784.70;181626;1253;43866;-84
2024/02/01 13:43:35;;;;;;;4.60;1.90;;;;;;;9.27;88.82;100785.05;181534;1253;44209;-84
2024/02/01 13:47:40;;;;;;;1.40;0.90;;;;;;;9.19;86.16;100802.20;181796;1253;43971;-81
2024/02/01 13:51:55;;;;;;;4.30;1.80;;;;;;;9.26;87.38;100800.52;181785;1253;43738;-81
2024/02/01 13:55:58;;;;;;;3.70;1.60;;;;;;;9.25;87.33;100807.47;181730;1253;57750;-81
2024/02/01 14:00:02;;;;;;;3.90;1.20;;;;;;;9.20;85.03;100811.91;181717;1253;43864;-81
2024/02/01 14:04:05;;;;;;;1.10;1.00;;;;;;;9.26;85.82;100818.57;181525;1253;43825;-81
2024/02/01 14:08:08;;;;;;;2.30;1.00;;;;;;;9.22;85.02;100809.44;181781;1253;43994;-82
2024/02/01 14:12:12;;;;;;;2.10;1.10;;;;;;;9.28;84.44;100814.19;181399;1253;43977;-81
2024/02/01 14:16:16;;;;;;;2.70;1.60;;;;;;;9.14;82.47;100825.56;181550;1256;57927;-81
2024/02/01 14:20:19;;;;;;;3.30;1.60;;;;;;;8.93;85.00;100828.17;181536;1253;43879;-82
2024/02/01 14:24:23;;;;;;;10.80;3.50;;;;;;;8.79;85.01;100832.08;181745;1254;44150;-81
2024/02/01 14:28:27;;;;;;;4.10;1.70;;;;;;;8.55;85.99;100832.55;181543;1253;44010;-82
2024/02/01 14:32:30;;;;;;;3.80;1.80;;;;;;;8.46;88.47;100840.02;181620;1253;45627;-82
2024/02/01 14:36:34;;;;;;;12.40;8.10;;;;;;;8.44;88.94;100846.66;181575;1253;58994;-81
2024/02/01 14:40:37;;;;;;;8.30;3.40;;;;;;;8.47;86.14;100859.76;181615;1254;43931;-81
2024/02/01 14:44:41;;;;;;;4.10;2.20;;;;;;;8.37;81.08;100872.36;181801;1253;43836;-81
2024/02/01 14:48:44;;;;;;;4.40;2.20;;;;;;;8.41;79.82;100871.95;181791;1254;44146;-82
2024/02/01 14:52:48;;;;;;;8.60;2.90;;;;;;;8.37;79.39;100874.88;181806;1254;43737;-81
2024/02/01 14:56:51;;;;;;;5.30;2.80;;;;;;;8.38;76.65;100866.86;181671;1253;59183;-81
2024/02/01 15:00:56;;;;;;;8.10;2.10;;;;;;;8.33;78.70;100872.80;181656;1253;44302;-82
2024/02/01 15:04:59;;;;;;;9.80;5.10;;;;;;;8.11;82.52;100875.61;181546;1257;44198;-82
2024/02/01 15:09:03;;;;;;;45.10;17.30;;;;;;;7.91;82.37;100887.55;181516;1253;43891;-81
2024/02/01 15:13:10;;;;;;;20.40;9.90;;;;;;;7.86;78.79;100890.88;181698;1253;44040;-81
2024/02/01 15:17:13;;;;;;;5.40;1.70;;;;;;;7.77;79.06;100889.48;181584;1253;58507;-82
2024/02/01 15:21:17;;;;;;;4.40;1.80;;;;;;;7.66;82.00;100887.67;181754;1254;43757;-82
2024/02/01 15:25:20;;;;;;;6.30;1.50;;;;;;;7.41;83.54;100896.20;181450;1253;104273;-82
2024/02/01 15:29:24;;;;;;;3.00;1.30;;;;;;;7.22;85.28;100904.85;181776;1254;44026;-86
2024/02/01 15:33:27;;;;;;;2.50;1.70;;;;;;;7.00;86.67;100916.85;181805;1253;44873;-84
2024/02/01 15:37:31;;;;;;;3.90;1.50;;;;;;;6.88;86.96;100919.66;181701;1253;57769;-84
2024/02/01 15:41:38;;;;;;;3.40;2.50;;;;;;;6.72;87.79;100933.77;181738;1253;44010;-84
2024/02/01 15:45:41;;;;;;;5.20;1.40;;;;;;;6.58;90.13;100943.02;181693;1254;43857;-85
2024/02/01 15:49:47;;;;;;;7.80;2.70;;;;;;;6.47;91.95;100955.05;181594;1254;44764;-85
2024/02/01 15:53:50;;;;;;;7.10;2.90;;;;;;;6.46;92.27;100963.70;181681;1258;44182;-84
2024/02/01 15:57:59;;;;;;;9.70;3.70;;;;;;;6.56;92.49;100971.98;181534;1253;60041;-85
2024/02/01 16:02:03;;;;;;;6.50;2.50;;;;;;;6.65;91.91;100971.34;181675;1253;44091;-85
2024/02/01 16:06:09;;;;;;;3.30;2.90;;;;;;;6.69;91.21;100967.23;181604;1253;44183;-85
2024/02/01 16:10:14;;;;;;;9.70;3.00;;;;;;;6.73;90.40;100962.80;181612;1254;43974;-85
2024/02/01 16:14:22;;;;;;;7.20;3.40;;;;;;;6.68;90.37;100969.73;181685;1253;43899;-84
2024/02/01 16:18:35;;;;;;;7.40;3.70;;;;;;;6.65;90.78;100975.38;181694;1253;58873;-85
2024/02/01 16:22:49;;;;;;;2.80;1.90;;;;;;;6.64;89.65;100980.55;181742;1253;44050;-85
2024/02/01 16:26:52;;;;;;;3.70;2.30;;;;;;;6.66;88.60;100972.70;181899;1253;44095;-85
2024/02/01 16:31:02;;;;;;;6.00;2.50;;;;;;;6.63;88.15;100980.11;181701;1254;43836;-85
2024/02/01 16:35:30;;;;;;;7.10;2.10;;;;;;;6.51;88.02;100974.17;181877;1254;44002;-85
2024/02/01 16:39:33;;;;;;;7.00;2.90;;;;;;;6.49;87.10;100983.10;181854;1254;60798;-85
2024/02/01 16:43:39;;;;;;;8.50;2.60;;;;;;;6.42;86.75;100990.17;181666;1254;44089;-85
2024/02/01 16:47:49;;;;;;;5.80;3.00;;;;;;;6.36;86.58;101002.80;181630;1254;44149;-85
2024/02/01 16:51:55;;;;;;;6.40;3.00;;;;;;;6.34;87.03;100999.05;181661;1254;44149;-85
2024/02/01 16:56:00;;;;;;;8.80;2.90;;;;;;;6.27;87.23;100998.21;181754;1253;43790;-85
2024/02/01 17:00:10;;;;;;;7.20;3.00;;;;;;;6.23;87.17;101002.29;181659;1254;57981;-84
2024/02/01 17:04:21;;;;;;;8.40;3.60;;;;;;;6.28;86.91;101009.40;181864;1253;44051;-85
2024/02/01 17:08:44;;;;;;;6.50;2.70;;;;;;;6.32;87.24;101016.41;181587;1253;43901;-85
2024/02/01 17:12:47;;;;;;;3.60;3.20;;;;;;;6.42;86.75;101015.73;181749;1253;43923;-85
2024/02/01 17:17:05;;;;;;;6.30;4.20;;;;;;;6.58;86.86;101006.10;181580;1254;43834;-85
2024/02/01 17:21:09;;;;;;;8.80;3.90;;;;;;;6.69;84.95;100999.85;181637;1253;58303;-85
2024/02/01 17:25:37;;;;;;;5.20;3.30;;;;;;;6.81;83.77;101006.96;181570;1253;44183;-85
2024/02/01 17:29:43;;;;;;;8.30;3.30;;;;;;;6.96;84.66;101004.02;181923;1252;44075;-83
2024/02/01 17:33:51;;;;;;;14.40;4.60;;;;;;;6.99;85.34;101006.48;181684;1253;44049;-85
2024/02/01 17:37:55;;;;;;;5.90;3.70;;;;;;;7.00;86.24;101010.85;181727;1254;44092;-85
2024/02/01 17:41:59;;;;;;;7.50;4.10;;;;;;;7.02;86.41;101016.61;181682;1254;59522;-85
2024/02/01 17:46:26;;;;;;;7.30;3.00;;;;;;;7.02;86.44;101023.29;181723;1254;44417;-85
2024/02/01 17:50:31;;;;;;;12.10;4.70;;;;;;;6.97;86.18;101028.15;181766;1254;44816;-85
2024/02/01 17:54:35;;;;;;;13.20;3.90;;;;;;;6.97;85.99;101033.44;181634;1253;43976;-85
2024/02/01 17:58:45;;;;;;;10.70;3.80;;;;;;;6.91;86.03;101025.30;181759;1253;44063;-85
2024/02/01 18:02:48;;;;;;;21.20;5.70;;;;;;;6.84;85.86;101030.95;181858;1254;57886;-84
2024/02/01 18:06:52;;;;;;;10.80;4.50;;;;;;;6.81;85.39;101030.58;181553;1254;44254;-85
2024/02/01 18:10:55;;;;;;;32.50;6.00;;;;;;;6.81;85.56;101025.46;181632;1254;44169;-84
2024/02/01 18:15:00;;;;;;;9.10;3.50;;;;;;;6.77;85.01;101022.86;181497;1253;44017;-85
2024/02/01 18:19:05;;;;;;;10.10;4.20;;;;;;;6.59;86.29;101033.15;181635;1254;43912;-85
2024/02/01 18:23:10;;;;;;;9.50;3.80;;;;;;;6.44;86.38;101036.92;181805;1254;59348;-85
2024/02/01 18:27:24;;;;;;;8.50;4.00;;;;;;;6.34;87.02;101041.35;181601;1254;44036;-85
2024/02/01 18:31:27;;;;;;;9.90;4.40;;;;;;;6.33;86.81;101035.21;181605;1254;44090;-85
2024/02/01 18:35:36;;;;;;;12.10;3.60;;;;;;;6.23;87.02;101030.61;181721;1253;43744;-85
2024/02/01 18:39:41;;;;;;;9.80;3.40;;;;;;;6.24;86.56;101037.80;181780;1254;44042;-85
2024/02/01 18:43:44;;;;;;;8.70;3.80;;;;;;;6.24;86.57;101035.83;181481;1253;58249;-84
2024/02/01 18:47:48;;;;;;;4.90;3.80;;;;;;;6.24;86.19;101032.70;181688;1254;44037;-85
2024/02/01 18:51:52;;;;;;;5.60;2.70;;;;;;;6.21;86.70;101030.73;181775;1254;43973;-84
2024/02/01 18:55:56;;;;;;;5.10;3.50;;;;;;;6.17;86.22;101045.21;181855;1254;44114;-85
2024/02/01 19:00:03;;;;;;;19.30;4.40;;;;;;;6.08;87.99;101048.09;181708;1254;44015;-85
2024/02/01 19:04:10;;;;;;;16.70;4.70;;;;;;;6.09;88.08;101056.70;181541;1254;59322;-85
2024/02/01 19:08:14;;;;;;;9.70;4.50;;;;;;;6.15;88.82;101062.71;181640;1253;45001;-85
2024/02/01 19:12:51;;;;;;;12.60;4.70;;;;;;;6.27;89.37;101073.39;181662;1253;44064;-85
2024/02/01 19:16:59;;;;;;;11.00;5.70;;;;;;;6.36;89.45;101073.98;181710;1252;44058;-85
2024/02/01 19:21:04;;;;;;;13.40;4.00;;;;;;;6.37;89.88;101071.98;181650;1253;43880;-85